createdAt,value
2022-12-14T00:01:36.087Z,15.70
2022-12-14T00:04:02.904Z,14.73
2022-12-14T00:06:32.416Z,14.23
2022-12-14T00:09:01.806Z,15.00
2022-12-14T00:11:29.042Z,12.80
2022-12-14T00:14:01.295Z,13.20
2022-12-14T00:16:31.103Z,14.43
2022-12-14T00:19:00.118Z,13.27
2022-12-14T00:21:28.541Z,13.13
2022-12-14T00:23:57.486Z,13.50
2022-12-14T00:26:27.945Z,14.07
2022-12-14T00:28:55.910Z,12.90
2022-12-14T00:31:24.233Z,14.15
2022-12-14T00:33:51.959Z,14.50
2022-12-14T00:36:19.969Z,13.40
2022-12-14T00:38:46.851Z,13.27
2022-12-14T00:41:14.025Z,13.03
2022-12-14T00:43:41.088Z,14.37
2022-12-14T00:46:08.746Z,13.47
2022-12-14T00:48:35.949Z,12.23
2022-12-14T00:51:04.174Z,13.57
2022-12-14T00:53:31.290Z,12.77
2022-12-14T00:56:05.567Z,16.13
2022-12-14T00:58:32.441Z,12.97
2022-12-14T01:01:06.016Z,15.13
2022-12-14T01:03:33.832Z,12.83
2022-12-14T01:06:01.816Z,10.70
2022-12-14T01:08:36.003Z,13.03
2022-12-14T01:11:08.064Z,12.93
2022-12-14T01:13:36.614Z,12.77
2022-12-14T01:18:34.677Z,10.77
2022-12-14T01:21:13.761Z,12.30
2022-12-14T01:26:07.822Z,12.13
2022-12-14T01:28:35.210Z,17.10
2022-12-14T01:31:14.757Z,11.20
2022-12-14T01:33:42.057Z,11.60
2022-12-14T01:36:12.015Z,15.93
2022-12-14T01:38:39.121Z,13.70
2022-12-14T01:41:07.957Z,17.23
2022-12-14T01:43:55.533Z,12.73
2022-12-14T01:46:26.511Z,13.17
2022-12-14T01:48:59.292Z,13.90
2022-12-14T01:51:27.382Z,12.37
2022-12-14T01:53:56.005Z,12.97
2022-12-14T01:58:50.701Z,17.83
2022-12-14T02:01:17.916Z,12.70
2022-12-14T02:03:50.475Z,14.20
2022-12-14T02:06:22.703Z,14.63
2022-12-14T02:08:52.495Z,15.67
2022-12-14T02:11:30.105Z,14.93
2022-12-14T02:13:56.913Z,17.30
2022-12-14T02:16:24.155Z,18.53
2022-12-14T02:18:50.974Z,21.70
2022-12-14T02:21:29.950Z,19.40
2022-12-14T02:24:28.911Z,17.05
2022-12-14T02:27:23.282Z,14.43
2022-12-14T02:29:52.873Z,17.40
2022-12-14T02:32:34.859Z,17.80
2022-12-14T02:35:15.477Z,15.10
2022-12-14T02:38:20.152Z,15.07
2022-12-14T02:41:18.961Z,13.23
2022-12-14T02:44:07.814Z,15.00
2022-12-14T02:46:59.432Z,13.77
2022-12-14T02:50:00.461Z,13.80
2022-12-14T02:52:48.977Z,13.07
2022-12-14T02:55:34.276Z,13.33
2022-12-14T02:58:03.601Z,14.47
2022-12-14T03:00:34.579Z,13.40
2022-12-14T03:03:02.656Z,15.27
2022-12-14T03:05:30.476Z,11.85
2022-12-14T03:08:16.885Z,12.93
2022-12-14T03:10:57.409Z,13.10
2022-12-14T03:13:43.585Z,14.40
2022-12-14T03:16:25.321Z,14.53
2022-12-14T03:19:00.647Z,14.40
2022-12-14T03:21:36.993Z,13.10
2022-12-14T03:24:12.751Z,14.90
2022-12-14T03:26:47.674Z,14.90
2022-12-14T03:29:21.816Z,14.37
2022-12-14T03:31:57.253Z,15.23
2022-12-14T03:34:34.191Z,15.67
2022-12-14T03:37:14.890Z,16.60
2022-12-14T03:39:43.484Z,16.77
2022-12-14T03:44:48.886Z,12.50
2022-12-14T03:47:29.042Z,13.33
2022-12-14T03:50:01.521Z,14.70
2022-12-14T03:53:01.754Z,14.30
2022-12-14T03:55:48.875Z,11.93
2022-12-14T03:58:37.239Z,13.60
2022-12-14T04:01:13.450Z,12.55
2022-12-14T04:04:13.600Z,20.70
2022-12-14T04:06:52.325Z,18.63
2022-12-14T04:09:28.882Z,19.70
2022-12-14T04:12:25.383Z,27.63
2022-12-14T04:15:15.775Z,25.40
2022-12-14T04:18:03.614Z,36.43
2022-12-14T04:20:43.109Z,21.70
2022-12-14T04:23:42.233Z,22.07
2022-12-14T04:26:15.415Z,20.57
2022-12-14T04:29:10.738Z,23.10
2022-12-14T04:31:41.988Z,24.10
2022-12-14T04:34:14.006Z,18.50
2022-12-14T04:36:43.298Z,20.50
2022-12-14T04:39:17.128Z,22.03
2022-12-14T04:41:49.580Z,24.03
2022-12-14T04:44:28.151Z,23.10
2022-12-14T04:46:58.404Z,19.30
2022-12-14T04:49:32.983Z,23.43
2022-12-14T04:52:11.358Z,22.23
2022-12-14T04:54:41.490Z,20.77
2022-12-14T04:57:29.477Z,22.40
2022-12-14T04:59:57.285Z,22.98
2022-12-14T05:02:38.993Z,15.18
2022-12-14T05:05:20.495Z,21.20
2022-12-14T05:08:09.846Z,22.40
2022-12-14T05:10:44.041Z,22.00
2022-12-14T05:13:20.251Z,20.37
2022-12-14T05:15:51.251Z,19.63
2022-12-14T05:18:18.864Z,20.60
2022-12-14T05:20:48.909Z,21.73
2022-12-14T05:23:16.736Z,20.00
2022-12-14T05:25:43.810Z,29.87
2022-12-14T05:28:11.792Z,24.00
2022-12-14T05:30:39.066Z,27.10
2022-12-14T05:33:06.445Z,27.95
2022-12-14T05:35:33.301Z,29.67
2022-12-14T05:38:00.360Z,29.00
2022-12-14T05:40:27.236Z,32.80
2022-12-14T05:43:04.783Z,28.70
2022-12-14T05:45:31.824Z,27.83
2022-12-14T05:47:59.148Z,30.77
2022-12-14T05:50:26.013Z,30.73
2022-12-14T05:52:53.378Z,27.17
2022-12-14T05:55:20.169Z,30.50
2022-12-14T05:57:47.218Z,28.47
2022-12-14T06:00:14.655Z,26.97
2022-12-14T06:02:41.783Z,24.33
2022-12-14T06:05:09.084Z,28.33
2022-12-14T06:07:36.236Z,24.23
2022-12-14T06:10:03.714Z,24.70
2022-12-14T06:12:30.838Z,34.15
2022-12-14T06:14:57.626Z,38.07
2022-12-14T06:17:24.704Z,41.80
2022-12-14T06:19:51.967Z,38.77
2022-12-14T06:22:19.236Z,44.70
2022-12-14T06:24:46.025Z,32.30
2022-12-14T06:27:13.137Z,32.90
2022-12-14T06:29:39.921Z,34.37
2022-12-14T06:32:07.073Z,46.93
2022-12-14T06:34:38.446Z,47.30
2022-12-14T06:37:07.006Z,46.20
2022-12-14T06:39:33.814Z,40.57
2022-12-14T06:42:00.894Z,36.10
2022-12-14T06:44:27.801Z,34.50
2022-12-14T06:46:55.855Z,31.80
2022-12-14T06:49:22.908Z,33.22
2022-12-14T06:51:50.220Z,37.67
2022-12-14T06:54:17.938Z,36.83
2022-12-14T06:56:46.620Z,30.75
2022-12-14T06:59:14.011Z,48.15
2022-12-14T07:01:41.639Z,41.65
2022-12-14T07:04:09.448Z,37.67
2022-12-14T07:06:39.343Z,36.33
2022-12-14T07:09:09.323Z,53.90
2022-12-14T07:11:36.633Z,51.27
2022-12-14T07:14:06.268Z,78.83
2022-12-14T07:16:34.928Z,80.93
2022-12-14T07:19:01.790Z,96.90
2022-12-14T07:21:29.509Z,111.57
2022-12-14T07:23:56.548Z,139.50
2022-12-14T07:26:26.654Z,144.60
2022-12-14T07:28:55.315Z,113.47
2022-12-14T07:31:25.089Z,103.07
2022-12-14T07:33:56.015Z,87.13
2022-12-14T07:36:24.643Z,67.97
2022-12-14T07:38:52.098Z,75.55
2022-12-14T07:41:29.558Z,69.55
2022-12-14T07:43:57.020Z,67.93
2022-12-14T07:46:26.865Z,80.57
2022-12-14T07:48:56.444Z,85.17
2022-12-14T07:51:33.418Z,120.93
2022-12-14T07:54:01.899Z,89.10
2022-12-14T07:58:58.318Z,83.55
2022-12-14T08:01:31.283Z,78.72
2022-12-14T08:04:00.009Z,74.50
2022-12-14T08:06:30.377Z,83.83
2022-12-14T08:08:58.281Z,99.43
2022-12-14T08:11:25.721Z,100.80
2022-12-14T08:13:57.187Z,109.17
2022-12-14T08:16:25.632Z,115.10
2022-12-14T08:18:54.071Z,105.40
2022-12-14T08:21:22.547Z,105.32
2022-12-14T08:23:50.913Z,98.50
2022-12-14T08:26:19.115Z,128.02
2022-12-14T08:28:47.562Z,110.73
2022-12-14T08:33:43.868Z,117.68
2022-12-14T08:36:25.477Z,134.40
2022-12-14T08:39:00.423Z,139.10
2022-12-14T08:41:28.905Z,150.23
2022-12-14T08:43:58.174Z,183.23
2022-12-14T08:46:27.410Z,168.63
2022-12-14T08:51:23.412Z,156.23
2022-12-14T08:53:50.462Z,170.97
2022-12-14T08:56:19.788Z,158.97
2022-12-14T09:01:16.742Z,182.27
2022-12-14T09:03:45.332Z,203.17
2022-12-14T09:06:24.476Z,194.18
2022-12-14T09:08:51.255Z,185.65
2022-12-14T09:11:21.687Z,178.47
2022-12-14T09:13:48.689Z,221.43
2022-12-14T09:16:21.784Z,206.00
2022-12-14T09:18:49.523Z,197.40
2022-12-14T09:21:18.098Z,192.67
2022-12-14T09:23:45.663Z,104.47
2022-12-14T09:26:18.778Z,134.03
2022-12-14T09:28:50.683Z,154.53
2022-12-14T09:31:20.077Z,94.27
2022-12-14T09:36:19.879Z,75.07
2022-12-14T09:38:51.579Z,68.90
2022-12-14T09:41:35.050Z,91.67
2022-12-14T09:44:24.970Z,64.30
2022-12-14T09:47:01.354Z,85.20
2022-12-14T09:49:34.618Z,76.17
2022-12-14T09:52:05.422Z,85.20
2022-12-14T09:54:38.732Z,83.00
2022-12-14T09:57:18.934Z,67.73
2022-12-14T09:59:45.696Z,55.90
2022-12-14T10:02:34.396Z,38.83
2022-12-14T10:05:17.146Z,33.88
2022-12-14T10:08:03.002Z,38.67
2022-12-14T10:10:44.067Z,36.47
2022-12-14T10:13:49.765Z,37.43
2022-12-14T10:16:27.749Z,34.37
2022-12-14T10:19:12.506Z,29.63
2022-12-14T10:22:16.525Z,19.27
2022-12-14T10:24:51.070Z,16.97
2022-12-14T10:27:22.893Z,16.30
2022-12-14T10:29:59.765Z,35.40
2022-12-14T10:32:37.774Z,21.40
2022-12-14T10:35:56.988Z,14.60
2022-12-14T10:38:56.740Z,14.23
2022-12-14T10:41:23.813Z,15.63
2022-12-14T10:44:03.487Z,13.03
2022-12-14T10:46:58.056Z,13.40
2022-12-14T10:49:32.610Z,15.37
2022-12-14T10:52:12.400Z,15.23
2022-12-14T10:54:46.669Z,15.10
2022-12-14T10:57:27.228Z,16.23
2022-12-14T11:00:09.826Z,18.37
2022-12-14T11:02:42.710Z,12.27
2022-12-14T11:05:36.608Z,12.73
2022-12-14T11:08:09.011Z,11.93
2022-12-14T11:10:39.528Z,13.87
2022-12-14T11:13:12.993Z,10.30
2022-12-14T11:15:45.717Z,19.37
2022-12-14T11:18:15.667Z,13.70
2022-12-14T11:20:56.445Z,15.53
2022-12-14T11:23:35.934Z,17.17
2022-12-14T11:26:07.065Z,17.73
2022-12-14T11:28:41.513Z,17.23
2022-12-14T11:31:13.209Z,14.50
2022-12-14T11:33:43.449Z,15.67
2022-12-14T11:36:24.037Z,17.30
2022-12-14T11:39:01.816Z,14.57
2022-12-14T11:41:40.870Z,13.03
2022-12-14T11:44:16.767Z,12.80
2022-12-14T11:46:58.902Z,13.07
2022-12-14T11:49:35.347Z,14.33
2022-12-14T11:52:09.609Z,13.33
2022-12-14T11:54:39.465Z,13.77
2022-12-14T11:57:12.337Z,12.97
2022-12-14T11:59:45.813Z,14.53
2022-12-14T12:02:22.074Z,15.30
2022-12-14T12:04:57.056Z,17.27
2022-12-14T12:07:29.724Z,18.87
2022-12-14T12:10:02.260Z,16.73
2022-12-14T12:12:29.130Z,16.10
2022-12-14T12:14:57.042Z,19.87
2022-12-14T12:17:39.402Z,17.73
2022-12-14T12:20:19.899Z,19.13
2022-12-14T12:22:51.247Z,18.60
2022-12-14T12:25:27.598Z,20.40
2022-12-14T12:28:28.360Z,19.08
2022-12-14T12:31:07.492Z,23.10
2022-12-14T12:33:46.716Z,24.67
2022-12-14T12:36:23.548Z,26.53
2022-12-14T12:39:07.927Z,31.97
2022-12-14T12:41:47.461Z,35.00
2022-12-14T12:44:49.787Z,32.20
2022-12-14T12:47:29.889Z,35.50
2022-12-14T12:50:06.506Z,32.87
2022-12-14T12:52:50.173Z,27.53
2022-12-14T12:55:19.815Z,26.43
2022-12-14T12:57:51.052Z,41.67
2022-12-14T13:00:25.387Z,43.83
2022-12-14T13:03:02.348Z,37.83
2022-12-14T13:05:47.668Z,24.97
2022-12-14T13:08:21.717Z,28.10
2022-12-14T13:13:44.221Z,32.63
2022-12-14T13:16:20.406Z,29.37
2022-12-14T13:19:04.916Z,27.53
2022-12-14T13:21:49.693Z,28.30
2022-12-14T13:24:20.103Z,26.47
2022-12-14T13:27:25.544Z,27.87
2022-12-14T13:30:00.384Z,28.63
2022-12-14T13:32:48.125Z,26.13
2022-12-14T13:35:46.482Z,26.17
2022-12-14T13:38:33.632Z,26.42
2022-12-14T13:41:27.162Z,33.33
2022-12-14T13:44:31.289Z,32.67
2022-12-14T13:47:06.528Z,33.90
2022-12-14T13:49:33.673Z,38.13
2022-12-14T13:52:01.229Z,27.13
2022-12-14T13:54:37.578Z,29.37
2022-12-14T13:57:09.898Z,29.33
2022-12-14T13:59:48.527Z,29.27
2022-12-14T14:05:18.745Z,24.23
2022-12-14T14:07:57.910Z,31.27
2022-12-14T14:12:56.680Z,32.27
2022-12-14T14:16:26.371Z,32.33
2022-12-14T14:18:52.236Z,34.37
2022-12-14T14:21:20.162Z,36.17
2022-12-14T14:24:01.410Z,37.80
2022-12-14T14:26:29.824Z,35.00
2022-12-14T14:29:10.889Z,36.35
2022-12-14T14:31:51.797Z,36.03
2022-12-14T14:34:41.913Z,39.03
2022-12-14T14:37:20.683Z,36.60
2022-12-14T14:40:33.262Z,46.33
2022-12-14T14:43:08.861Z,35.63
2022-12-14T14:45:58.279Z,33.67
2022-12-14T14:48:30.629Z,34.87
2022-12-14T14:51:14.592Z,34.53
2022-12-14T14:53:41.846Z,34.07
2022-12-14T14:56:30.894Z,30.67
2022-12-14T15:01:50.833Z,33.47
2022-12-14T15:04:24.761Z,44.40
2022-12-14T15:06:58.076Z,44.33
2022-12-14T15:09:33.764Z,43.17
2022-12-14T15:12:08.007Z,31.97
2022-12-14T15:14:48.508Z,36.57
2022-12-14T15:17:18.844Z,30.80
2022-12-14T15:19:49.851Z,35.93
2022-12-14T15:22:22.771Z,34.20
2022-12-14T15:24:53.095Z,18.37
2022-12-14T15:27:22.768Z,15.37
2022-12-14T15:29:51.027Z,17.20
2022-12-14T15:32:22.842Z,12.38
2022-12-14T15:34:56.087Z,13.63
2022-12-14T15:37:53.520Z,11.67
2022-12-14T15:40:30.545Z,14.35
2022-12-14T15:43:15.237Z,12.13
2022-12-14T15:45:44.590Z,12.70
2022-12-14T15:48:21.913Z,13.60
2022-12-14T15:50:54.423Z,16.43
2022-12-14T15:53:52.877Z,15.70
2022-12-14T15:56:30.063Z,13.43
2022-12-14T15:58:59.973Z,10.50
2022-12-14T16:01:38.028Z,13.97
2022-12-14T16:04:09.899Z,13.35
2022-12-14T16:06:42.090Z,13.80
2022-12-14T16:09:26.566Z,13.40
2022-12-14T16:12:04.109Z,14.13
2022-12-14T16:14:44.261Z,13.83
2022-12-14T16:17:33.874Z,13.20
2022-12-14T16:20:09.036Z,11.10
2022-12-14T16:22:39.983Z,12.80
2022-12-14T16:25:10.000Z,12.70
2022-12-14T16:27:42.756Z,14.63
2022-12-14T16:30:19.222Z,13.77
2022-12-14T16:32:50.114Z,14.07
2022-12-14T16:35:19.400Z,15.87
2022-12-14T16:37:51.228Z,14.18
2022-12-14T16:40:35.061Z,15.83
2022-12-14T16:43:04.593Z,16.63
2022-12-14T16:45:45.271Z,24.50
2022-12-14T16:48:22.194Z,25.53
2022-12-14T16:51:02.902Z,28.50
2022-12-14T16:53:34.991Z,10.67
2022-12-14T16:56:04.453Z,12.63
2022-12-14T17:01:06.155Z,9.57
2022-12-14T17:03:34.124Z,10.80
2022-12-14T17:06:07.070Z,8.88
2022-12-14T17:08:34.654Z,11.50
2022-12-14T17:11:02.411Z,9.93
2022-12-14T17:13:29.855Z,5.90
2022-12-14T17:16:06.122Z,9.75
2022-12-14T17:18:37.737Z,10.10
2022-12-14T17:21:06.141Z,6.47
2022-12-14T17:23:35.593Z,13.23
2022-12-14T17:26:02.741Z,12.83
2022-12-14T17:28:31.599Z,12.67
2022-12-14T17:30:59.803Z,10.73
2022-12-14T17:33:28.486Z,11.57
2022-12-14T17:35:56.024Z,14.30
2022-12-14T17:38:23.276Z,16.57
2022-12-14T17:40:51.765Z,14.67
2022-12-14T17:43:21.057Z,9.70
2022-12-14T17:45:48.264Z,11.23
2022-12-14T17:48:16.474Z,11.10
2022-12-14T17:50:47.711Z,7.32
2022-12-14T17:53:16.779Z,11.90
2022-12-14T17:55:44.208Z,5.60
2022-12-14T17:58:11.374Z,12.60
2022-12-14T18:00:58.619Z,13.67
2022-12-14T18:03:26.277Z,9.40
2022-12-14T18:05:53.609Z,8.52
2022-12-14T18:08:22.238Z,9.40
2022-12-14T18:13:43.069Z,12.17
2022-12-14T18:16:15.925Z,6.38
2022-12-14T18:18:43.406Z,6.90
2022-12-14T18:21:22.424Z,8.03
2022-12-14T18:23:50.565Z,10.40
2022-12-14T18:26:22.319Z,13.18
2022-12-14T18:28:50.729Z,9.60
2022-12-14T18:31:24.007Z,9.80
2022-12-14T18:33:50.960Z,12.43
2022-12-14T18:36:21.510Z,13.17
2022-12-14T18:38:51.971Z,11.63
2022-12-14T18:41:23.185Z,9.13
2022-12-14T18:43:50.577Z,10.67
2022-12-14T18:46:18.116Z,11.77
2022-12-14T18:48:45.188Z,13.17
2022-12-14T18:51:15.545Z,14.60
2022-12-14T18:53:43.255Z,13.80
2022-12-14T18:56:12.400Z,10.23
2022-12-14T18:58:42.070Z,11.77
2022-12-14T19:01:15.092Z,14.00
2022-12-14T19:03:43.551Z,12.67
2022-12-14T19:09:09.280Z,14.35
2022-12-14T19:11:41.852Z,24.47
2022-12-14T19:14:09.702Z,33.53
2022-12-14T19:16:37.068Z,33.90
2022-12-14T19:19:03.940Z,31.17
2022-12-14T19:21:31.648Z,24.53
2022-12-14T19:24:01.825Z,29.80
2022-12-14T19:26:29.339Z,39.23
2022-12-14T19:28:56.910Z,25.17
2022-12-14T19:31:24.014Z,21.03
2022-12-14T19:33:50.907Z,19.30
2022-12-14T19:36:18.022Z,16.33
2022-12-14T19:38:45.076Z,17.10
2022-12-14T19:41:20.168Z,17.77
2022-12-14T19:43:47.570Z,17.73
2022-12-14T19:46:16.439Z,16.43
2022-12-14T19:48:44.459Z,18.23
2022-12-14T19:51:13.119Z,16.15
2022-12-14T19:53:42.648Z,16.65
2022-12-14T19:56:10.949Z,11.60
2022-12-14T19:58:37.732Z,14.07
2022-12-14T20:01:09.086Z,13.70
2022-12-14T20:03:37.405Z,11.27
2022-12-14T20:06:06.157Z,14.17
2022-12-14T20:08:34.183Z,11.40
2022-12-14T20:11:06.327Z,11.55
2022-12-14T20:13:33.909Z,10.87
2022-12-14T20:16:02.181Z,13.63
2022-12-14T20:18:30.765Z,11.77
2022-12-14T20:21:05.631Z,13.60
2022-12-14T20:23:35.371Z,13.50
2022-12-14T20:26:04.530Z,13.60
2022-12-14T20:28:31.676Z,10.75
2022-12-14T20:30:58.958Z,14.07
2022-12-14T20:33:30.117Z,11.50
2022-12-14T20:35:58.220Z,10.60
2022-12-14T20:38:25.573Z,12.73
2022-12-14T20:40:52.896Z,13.03
2022-12-14T20:43:19.939Z,11.83
2022-12-14T20:45:47.186Z,10.77
2022-12-14T20:48:14.011Z,10.73
2022-12-14T20:50:43.126Z,12.73
2022-12-14T20:53:09.980Z,11.90
2022-12-14T20:55:37.358Z,13.90
2022-12-14T20:58:04.163Z,12.33
2022-12-14T21:00:31.404Z,11.67
2022-12-14T21:02:58.467Z,11.77
2022-12-14T21:05:25.852Z,13.23
2022-12-14T21:07:52.637Z,12.33
2022-12-14T21:10:19.802Z,15.13
2022-12-14T21:12:49.865Z,12.47
2022-12-14T21:15:17.062Z,13.77
2022-12-14T21:17:43.804Z,9.50
2022-12-14T21:20:12.772Z,12.50
2022-12-14T21:22:39.591Z,13.20
2022-12-14T21:25:07.746Z,12.83
2022-12-14T21:27:38.481Z,9.40
2022-12-14T21:30:08.438Z,10.63
2022-12-14T21:32:37.243Z,13.07
2022-12-14T21:35:04.909Z,11.07
2022-12-14T21:37:31.712Z,11.27
2022-12-14T21:39:58.818Z,12.37
2022-12-14T21:42:26.608Z,7.60
2022-12-14T21:44:54.370Z,12.65
2022-12-14T21:47:24.364Z,11.90
2022-12-14T21:49:51.463Z,14.07
2022-12-14T21:52:20.813Z,12.00
2022-12-14T21:54:47.916Z,12.53
2022-12-14T21:57:34.902Z,13.63
2022-12-14T22:00:02.602Z,13.07
2022-12-14T22:02:29.834Z,14.10
2022-12-14T22:04:57.305Z,14.50
2022-12-14T22:07:29.516Z,15.17
2022-12-14T22:09:56.650Z,14.80
2022-12-14T22:12:23.505Z,15.47
2022-12-14T22:14:51.088Z,15.67
2022-12-14T22:17:18.153Z,15.00
2022-12-14T22:19:45.412Z,14.60
2022-12-14T22:22:16.802Z,14.90
2022-12-14T22:24:47.440Z,15.83
2022-12-14T22:27:15.016Z,15.97
2022-12-14T22:29:42.141Z,15.73
2022-12-14T22:32:11.785Z,15.30
2022-12-14T22:34:39.057Z,14.70
2022-12-14T22:37:06.119Z,16.17
2022-12-14T22:39:33.368Z,12.57
2022-12-14T22:42:00.410Z,16.30
2022-12-14T22:44:27.511Z,17.00
2022-12-14T22:46:54.353Z,16.03
2022-12-14T22:49:21.618Z,16.47
2022-12-14T22:51:48.426Z,14.67
2022-12-14T22:54:20.944Z,17.43
2022-12-14T22:56:56.018Z,16.33
2022-12-14T22:59:34.030Z,15.93
2022-12-14T23:02:01.128Z,14.93
2022-12-14T23:04:28.549Z,15.97
2022-12-14T23:06:55.643Z,16.60
2022-12-14T23:09:41.396Z,18.97
2022-12-14T23:12:26.528Z,17.87
2022-12-14T23:15:12.268Z,18.93
2022-12-14T23:17:57.490Z,19.40
2022-12-14T23:20:43.389Z,18.43
2022-12-14T23:23:29.266Z,20.37
2022-12-14T23:26:20.323Z,17.93
2022-12-14T23:29:05.606Z,13.83
2022-12-14T23:31:51.893Z,16.33
2022-12-14T23:34:37.264Z,17.37
2022-12-14T23:37:23.235Z,18.63
2022-12-14T23:40:08.661Z,17.27
2022-12-14T23:42:54.084Z,19.90
2022-12-14T23:45:39.613Z,19.67
2022-12-14T23:48:25.607Z,22.27
2022-12-14T23:51:10.763Z,21.37
2022-12-14T23:53:56.427Z,21.13
2022-12-14T23:56:41.697Z,21.80
2022-12-14T23:59:31.921Z,20.63
